Portada
METAR-TAF:

METAR-TAF

Aeroports :

Batesville, Arkansas, Estats Units d'Amèrica

latitud: 35-44N, longitud: 091-39W, altitud: 141 m

Observació

L'informe es va fer fa 9 minuts, a les 21:56 UTC
Vent 8 kt del Sud
Temperatura 29°C
Humitat 66%
Pressió 1012 hPa
Visibilitat: 16.1 km
Cel ennuvolat a una alçada de 3300 ft
Cel ennuvolat a una alçada de 4200 ft

METAR: KBVX 242156Z AUTO 18008KT 10SM BKN033 BKN042 29/22 A2989 RMK AO2 SLP116 T02940222

Hora: 17:05 (22:05 UTC)


TAF: manca

Observacions i pronòstics meteorològics de més de 4000 aeroports (METAR i TAF).

Les estacions disponibles són els punts grocs i vermells al mapa.

Posi el ratolí al punt desitjat per veure el nom de l'estació.

Feu clic per veure les observacions i els pronòstics meteorològics.

Per canviar el mapa: feu clic els botons verds amb una creu de color negre per apropar; al botó verd amb un guió per allunyar la imatge; o en les fletxes verdes per a mapes adjacents.


METAR-TAF: